• Join FlightAware (Why Join?)
  • Login
  • US Flag 
Rudolph Flight #1: Arrived! 
03:17PM EST


 

Airport Tracker/Info


-or-


 

Live Flight TrackerFlight Track Log ✈ EGF3994 ✈ 05-Jun-2013 ✈ KORD - KDAY

Flight Track Log - Related Links

Times and Time Zones

All times are in EDT time to prevent confusion due to time zone crossing. See the EGF3994 flight status page for this flight to view local times or setup timezone preferences in your user account.

Time Position Orientation Groundspeed Altitude Reporting Facility
EDT Latitude Longitude Course Direction KTS MPH feet Rate Location/Type
06:51PM 41.9667 -87.8500 90° East 179 206 2,300  Level Chicago TRACON
06:52PM 41.9481 -87.8125 124° Southeast 200 230 4,300 1,680 Climbing Chicago Center
06:53PM 41.9603 -87.4698 98° East  Level FlightAware Approximate
06:53PM 41.9297 -87.7267 106° East 232 267 5,400  Level Chicago Center
06:54PM 41.9472 -87.3273 95° East  Level FlightAware Approximate
06:54PM 41.9347 -87.6050 87° East 276 318 8,300  Level Chicago Center
06:55PM 41.9370 -87.1845 95° East  Level FlightAware Approximate
06:55PM 41.9369 -87.4969 88° East 288 331 10,500  Level Chicago Center
06:56PM 41.9333 -87.0412 90° East  Level FlightAware Approximate
06:56PM 41.9400 -87.3778 88° East 316 364 12,600  Level Chicago Center
06:57PM 41.9333 -86.9168 90° East  Level FlightAware Approximate
06:57PM 41.9411 -87.2544 89° East 331 381 14,200  Level Chicago Center
06:58PM 41.9444 -87.1158 88° East 372 428 14,700 720 Climbing Chicago Center
06:59PM 41.9469 -86.9389 89° East 397 457 15,800 1,080 Climbing Chicago Center
07:00PM 41.9494 -86.7897 89° East 401 461 17,000 1,200 Climbing Chicago Center
07:01PM 41.9508 -86.6458 89° East 400 460 18,400 960 Climbing Chicago Center
07:02PM 41.9528 -86.4925 89° East 411 473 19,000 780 Climbing Chicago Center
07:03PM 41.9539 -86.3292 89° East 436 502 20,100 1,440 Climbing Chicago Center
07:04PM 41.9281 -86.1453 101° East 431 496 22,000 1,380 Climbing Chicago Center
07:06PM 41.8497 -86.0372 134° Southeast 411 473 23,000 480 Climbing Chicago Center
07:07PM 41.7644 -85.9264 136° Southeast 422 486 23,000  Level Chicago Center
07:08PM 41.6753 -85.8092 136° Southeast 445 512 23,000  Level Chicago Center
07:09PM 41.5853 -85.6919 136° Southeast 455 524 23,000  Level Chicago Center
07:10PM 41.4786 -85.5522 136° Southeast 458 527 23,000  Level Chicago Center
07:11PM 41.3911 -85.4372 135° Southeast 451 519 23,000 -240 Level Chicago Center
07:12PM 41.3022 -85.3250 136° Southeast 446 513 22,600 -1,020 Descending Chicago Center
07:13PM 41.2139 -85.2103 136° Southeast 447 514 20,900 -1,680 Descending Chicago Center
07:14PM 41.1278 -85.0983 136° Southeast 441 507 19,200 -1,920 Descending Chicago Center
07:15PM 41.0292 -84.9742 136° Southeast 417 480 17,000 -2,040 Descending Chicago Center
07:16PM 40.9472 -84.8719 137° Southeast 410 472 15,100 -1,020 Descending Chicago Center
07:17PM 40.8686 -84.7681 135° Southeast 405 466 15,000 -60 Descending Chicago Center
07:18PM 40.7908 -84.6700 136° Southeast 394 453 15,000 -240 Level Chicago Center
07:19PM 40.7358 -84.5983 135° Southeast 388 447 14,600 -1,500 Descending Indianapolis Center
07:20PM 40.6403 -84.4819 137° Southeast 379 436 12,300 -2,100 Descending Indianapolis Center
07:20PM 40.5983 -84.4294 136° Southeast 383 441 11,300 -1,380 Descending Indianapolis Center
07:21PM 40.5700 -84.3906 134° Southeast 376 433 11,000 -300 Descending Indianapolis Center
07:21PM 40.5281 -84.3400 137° Southeast 351 404 11,000  Level Indianapolis Center
07:22PM 40.4992 -84.3017 135° Southeast 355 409 11,000 -120 Level Indianapolis Center
07:22PM 40.4597 -84.2511 136° Southeast 341 392 10,900 -420 Descending Indianapolis Center
07:23PM 40.4319 -84.2144 135° Southeast 339 390 10,600 -540 Descending Indianapolis Center
07:23PM 40.3969 -84.1689 135° Southeast 319 367 10,400 -540 Descending Indianapolis Center
07:24PM 40.3697 -84.1331 135° Southeast 318 366 10,100 -420 Descending Indianapolis Center
07:24PM 40.3264 -84.1047 154° Southeast 303 349 10,000 -120 Descending Indianapolis Center
07:25PM 40.2914 -84.1003 174° South 309 356 10,000  Level Indianapolis Center
07:25PM 40.2394 -84.0931 174° South 308 354 10,000  Level Indianapolis Center
07:26PM 40.2061 -84.0889 175° South 306 352 10,000  Level Indianapolis Center
07:26PM 40.1522 -84.0817 174° South 315 362 10,000  Level Indianapolis Center
07:27PM 40.1172 -84.0775 175° South 317 365 10,000 -420 Level Indianapolis Center
07:27PM 40.0728 -84.1067 207° Southwest 274 315 9,600 -1,500 Descending Indianapolis Center
07:28PM 40.0506 -84.1508 237° Southwest 280 322 8,500 -1,980 Descending Indianapolis Center
07:28PM 40.0308 -84.1883 236° Southwest 267 307 7,600 -2,040 Descending Indianapolis Center
07:29PM 40.0089 -84.2311 236° Southwest 268 308 6,400 -1,620 Descending Indianapolis Center
07:29PM 39.9889 -84.2672 234° Southwest 258 297 6,000 -420 Descending Indianapolis Center
07:30PM 39.9686 -84.3078 237° Southwest 261 300 6,000  Level Indianapolis Center
07:30PM 39.9519 -84.3386 235° Southwest 255 293 6,000 -300 Level Indianapolis Center
07:31PM 39.9289 -84.3844 237° Southwest 257 296 5,700 -900 Descending Indianapolis Center
07:31PM 39.9097 -84.4172 233° Southwest 248 285 5,000 -1,860 Descending Indianapolis Center